Latest Weather Observations for Iron Bridge Mine

IDW60801

Issued at 8:13 am WST Tuesday 16 August 2022 (issued every 10 minutes, with the page automatically refreshed every 10 minutes)

About weather observations | Map of weather stations | Latest weather observations for WA | Other Formats
Station Details ID: 504066 Name: IRONBRIDGE AIRPORT Lat: -21.28 Lon: 118.88 Height: 196.58 m
Data from the previous 72 hours. | See also: Recent months for locations in Western Australia
Date/Time
WST
Temp
°C
App
Temp
°C
Dew
Point
°C
Rel
Hum
%
Delta-T
°C
Wind Press
QNH
hPa
Press
MSL
hPa
Rain since
9am
mm
Dir  Spd
km/h
Gust
km/h
Spd
kts
Gust
kts
16/08:00am 20.9 20.0 9.2 47 6.3 SSE 4 6 2 3 1016.6 1015.9 0.0
16/07:30am 18.4 17.0 8.7 53 5.1 SE 6 6 3 3 1016.5 1015.8 0.0
16/07:00am 16.6 15.0 8.1 57 4.3 SSE 6 7 3 4 1016.3 1015.6 0.0
16/06:30am 15.7 14.1 8.0 60 3.9 SSE 6 7 3 4 1016.0 1015.3 0.0
16/06:00am 15.7 14.0 7.7 59 4.0 SE 6 6 3 3 1015.8 1015.1 0.0
16/05:30am 16.0 14.3 7.7 58 4.2 SE 6 7 3 4 1015.4 1014.7 0.0
16/05:00am 15.8 14.0 7.8 59 4.0 SSE 7 9 4 5 1015.1 1014.4 0.0
16/04:30am 16.0 14.1 7.7 58 4.2 SSE 7 9 4 5 1014.9 1014.2 0.0
16/04:00am 16.3 14.0 7.5 56 4.4 SSE 9 9 5 5 1014.9 1014.2 0.0
16/03:30am 16.6 14.9 7.5 55 4.6 SSE 6 7 3 4 1014.7 1014.0 0.0
16/03:00am 17.0 15.1 7.6 54 4.8 SSE 7 9 4 5 1014.9 1014.2 0.0
16/02:30am 17.3 15.4 7.6 53 4.9 SE 7 7 4 4 1015.1 1014.4 0.0
16/02:00am 17.8 16.2 7.8 52 5.1 SE 6 7 3 4 1015.4 1014.7 0.0
16/01:30am 17.9 16.0 7.6 51 5.3 SE 7 9 4 5 1015.4 1014.7 0.0
16/01:00am 18.4 16.6 7.8 50 5.5 SSE 7 9 4 5 1015.6 1014.9 0.0
16/12:30am 18.9 17.2 8.3 50 5.5 SSE 7 9 4 5 1015.7 1015.0 0.0
16/12:00am 19.7 18.9 8.1 47 6.1 ENE 2 4 1 2 1015.9 1015.2 0.0
 
Date/Time
WST
Temp
°C
App
Temp
°C
Dew
Point
°C
Rel
Hum
%
Delta-T
°C
Wind Press
QNH
hPa
Press
MSL
hPa
Rain since
9am
mm
Dir  Spd
km/h
Gust
km/h
Spd
kts
Gust
kts
15/11:30pm 20.9 19.3 8.2 44 6.7 NE 6 6 3 3 1015.9 1015.2 0.0
15/11:00pm 21.3 19.7 7.9 42 7.0 NNE 6 6 3 3 1016.0 1015.3 0.0
15/10:30pm 21.5 20.0 7.0 39 7.5 NNE 4 4 2 2 1016.0 1015.3 0.0
15/10:00pm 21.8 20.0 7.2 39 7.6 NNE 6 6 3 3 1016.1 1015.4 0.0
15/09:30pm 22.0 20.1 6.7 37 7.9 NE 6 6 3 3 1016.1 1015.4 0.0
15/09:00pm 22.4 20.4 6.2 35 8.3 NNW 6 6 3 3 1016.0 1015.3 0.0
15/08:30pm 22.7 20.1 6.0 34 8.5 NW 9 13 5 7 1016.0 1015.3 0.0
15/08:00pm 23.7 21.1 6.0 32 9.1 NW 9 11 5 6 1015.6 1014.9 0.0
15/07:30pm 24.9 21.5 6.1 30 9.8 NNW 13 15 7 8 1015.3 1014.6 0.0
15/07:00pm 26.2 22.8 5.7 27 10.6 NNW 13 15 7 8 1014.9 1014.2 0.0
15/06:30pm 28.6 24.0 5.5 23 12.1 NNW 19 26 10 14 1014.4 1013.7 0.0
15/06:00pm 29.3 25.0 5.4 22 12.6 N 17 22 9 12 1014.2 1013.5 0.0
15/05:30pm 30.5 25.2 5.0 20 13.4 N 22 32 12 17 1013.9 1013.2 0.0
15/05:00pm 31.2 25.5 4.9 19 13.9 N 24 33 13 18 1013.7 1013.0 0.0
15/04:30pm 32.2 27.3 4.9 18 14.5 N 20 30 11 16 1013.6 1012.9 0.0
15/04:00pm 32.6 27.0 5.2 18 14.6 N 24 33 13 18 1013.3 1012.6 0.0
15/03:30pm 33.0 27.3 4.7 17 15.0 NNE 24 37 13 20 1013.2 1012.5 0.0
15/03:00pm 32.8 26.8 5.4 18 14.7 N 26 41 14 22 1013.2 1012.5 0.0
15/02:30pm 33.6 28.0 5.2 17 15.3 NNE 24 37 13 20 1013.4 1012.7 0.0
15/02:00pm 33.6 27.4 6.0 18 15.0 N 28 37 15 20 1013.6 1012.9 0.0
15/01:30pm 32.8 27.9 6.9 20 14.2 NE 22 35 12 19 1014.1 1013.4 0.0
15/01:00pm 32.6 27.4 7.4 21 14.0 NE 24 35 13 19 1014.6 1013.9 0.0
15/12:30pm 32.6 27.4 7.4 21 14.0 NNE 24 35 13 19 1015.2 1014.5 0.0
15/12:00pm 32.3 28.2 8.5 23 13.4 NE 20 35 11 19 1015.6 1014.9 0.0
15/11:30am 31.6 27.1 8.6 24 12.9 NE 22 30 12 16 1016.2 1015.5 0.0
15/11:00am 31.0 26.5 8.7 25 12.5 NE 22 32 12 17 1016.5 1015.8 0.0
15/10:30am 30.6 26.3 9.5 27 12.0 NE 22 30 12 16 1016.8 1016.1 0.0
15/10:00am 30.4 28.9 10.4 29 11.5 E 9 19 5 10 1017.0 1016.3 0.0
15/09:30am 28.6 27.8 11.2 34 10.0 E 6 9 3 5 1017.4 1016.6 0.0
15/09:00am 27.7 26.4 10.0 33 10.0 E 7 13 4 7 1017.2 1016.4 0.0
15/08:30am 26.2 25.0 10.4 37 8.9 E 7 9 4 5 1016.9 1016.2 0.0
15/08:00am 22.2 21.1 10.7 48 6.4 ESE 7 9 4 5 1016.8 1016.1 0.0
15/07:30am 20.0 18.8 10.4 54 5.2 SSE 7 9 4 5 1016.8 1016.1 0.0
15/07:00am 18.1 16.9 10.2 60 4.2 SSE 7 9 4 5 1016.5 1015.8 0.0
15/06:30am 17.8 16.2 10.2 61 4.1 SSE 9 9 5 5 1016.1 1015.4 0.0
15/06:00am 17.7 16.6 10.1 61 4.1 SSE 6 7 3 4 1015.7 1015.0 0.0
15/05:30am 18.2 17.0 10.3 60 4.3 SE 7 9 4 5 1015.3 1014.6 0.0
15/05:00am 17.5 16.2 10.1 62 4.0 SE 7 9 4 5 1015.3 1014.6 0.0
15/04:30am 18.0 16.7 10.1 60 4.2 SE 7 9 4 5 1015.3 1014.6 0.0
15/04:00am 17.8 16.7 9.9 60 4.2 SSE 6 7 3 4 1015.4 1014.7 0.0
15/03:30am 18.0 16.4 10.1 60 4.2 SE 9 9 5 5 1015.5 1014.8 0.0
15/03:00am 18.2 16.2 10.3 60 4.3 SSE 11 13 6 7 1015.7 1015.0 0.0
15/02:30am 18.5 17.3 10.3 59 4.4 SSE 7 9 4 5 1015.8 1015.1 0.0
15/02:00am 19.1 17.9 10.4 57 4.7 SE 7 7 4 4 1015.7 1015.0 0.0
15/01:30am 19.4 18.4 10.4 56 4.9 SE 6 7 3 4 1015.6 1014.9 0.0
15/01:00am 19.6 18.5 10.0 54 5.2 SSE 6 7 3 4 1015.9 1015.2 0.0
15/12:30am 19.7 18.6 10.1 54 5.2 SSE 6 7 3 4 1016.0 1015.3 0.0
15/12:00am 20.0 18.9 10.1 53 5.4 SSE 6 7 3 4 1016.1 1015.4 0.0
 
Date/Time
WST
Temp
°C
App
Temp
°C
Dew
Point
°C
Rel
Hum
%
Delta-T
°C
Wind Press
QNH
hPa
Press
MSL
hPa
Rain since
9am
mm
Dir  Spd
km/h
Gust
km/h
Spd
kts
Gust
kts
14/11:30pm 21.3 21.0 10.2 49 6.1 NNE 2 4 1 2 1016.4 1015.7 0.0
14/11:00pm 21.6 20.9 10.1 48 6.3 NNW 4 6 2 3 1016.6 1015.9 0.0
14/10:30pm 22.3 20.7 10.1 46 6.7 NNW 9 11 5 6 1016.9 1016.2 0.0
14/10:00pm 22.5 20.8 10.0 45 6.9 NNW 9 11 5 6 1017.0 1016.3 0.0
14/09:30pm 23.1 21.5 10.2 44 7.1 NNW 9 11 5 6 1016.9 1016.2 0.0
14/09:00pm 24.1 21.7 10.0 41 7.8 NNW 13 17 7 9 1016.7 1016.0 0.0
14/08:30pm 25.1 21.9 9.8 38 8.5 NNW 17 22 9 12 1016.6 1015.9 0.0
14/08:00pm 26.2 22.8 10.4 37 8.9 NNW 19 24 10 13 1016.1 1015.4 0.0
14/07:30pm 26.3 25.6 10.0 36 9.1 NW 4 4 2 2 1015.5 1014.8 0.0
14/07:00pm 26.5 25.3 9.4 34 9.5 WNW 6 6 3 3 1015.2 1014.5 0.0
14/06:30pm 27.9 26.4 9.2 31 10.4 WNW 7 7 4 4 1014.9 1014.2 0.0
14/06:00pm 29.1 27.3 9.3 29 11.1 WNW 9 11 5 6 1014.6 1013.9 0.0
14/05:30pm 31.2 29.2 8.8 25 12.6 NW 9 13 5 7 1014.3 1013.6 0.0
14/05:00pm 31.9 30.3 8.8 24 13.0 NW 7 13 4 7 1014.1 1013.4 0.0
14/04:30pm 32.2 29.5 9.1 24 13.1 NW 13 20 7 11 1013.9 1013.2 0.0
14/04:00pm 32.1 29.4 9.0 24 13.1 N 13 20 7 11 1013.9 1013.2 0.0
14/03:30pm 33.0 31.5 9.1 23 13.6 NNW 7 20 4 11 1013.7 1013.0 0.0
14/03:00pm 32.3 29.9 8.5 23 13.4 N 11 20 6 11 1013.7 1013.0 0.0
14/02:30pm 32.2 30.3 9.1 24 13.1 NW 9 22 5 12 1013.8 1013.1 0.0
14/02:00pm 32.5 30.3 9.3 24 13.2 NNE 11 37 6 20 1014.2 1013.5 0.0
14/01:30pm 32.2 29.5 9.1 24 13.1 N 13 22 7 12 1014.5 1013.8 0.0
14/01:00pm 31.5 28.8 9.1 25 12.7 NNW 13 24 7 13 1014.9 1014.2 0.0
14/12:30pm 31.4 29.3 9.6 26 12.4 NNW 11 19 6 10 1015.2 1014.5 0.0
14/12:00pm 30.6 28.9 10.0 28 11.8 ENE 9 20 5 11 1015.4 1014.7 0.0
14/11:30am 30.2 28.8 9.7 28 11.6 E 7 17 4 9 1015.8 1015.1 0.0
14/11:00am 29.6 28.4 9.7 29 11.3 E 6 13 3 7 1016.1 1015.4 0.0
14/10:30am 29.4 28.3 10.0 30 11.0 ESE 6 13 3 7 1016.4 1015.7 0.0
14/10:00am 28.4 27.1 10.1 32 10.4 SE 7 13 4 7 1016.7 1016.0 0.0
14/09:30am 27.5 26.5 10.2 34 9.8 ESE 6 11 3 6 1016.8 1016.1 0.0
14/09:00am 26.6 24.9 9.9 35 9.3 ESE 9 15 5 8 1016.7 1016.0 0.0
14/08:30am 25.2 24.0 10.3 39 8.3 E 7 11 4 6 1016.6 1015.9 0.0
14/08:00am 21.1 20.6 10.6 51 5.8 SE 4 6 2 3 1016.6 1015.9 0.0
14/07:30am 18.6 17.5 9.9 57 4.7 SSE 6 7 3 4 1016.3 1015.6 0.0
14/07:00am 16.6 15.1 9.1 61 3.9 SE 7 9 4 5 1016.1 1015.4 0.0
14/06:30am 16.4 14.5 8.9 61 3.9 SSE 9 9 5 5 1015.7 1015.0 0.0
14/06:00am 16.7 15.2 9.1 61 4.0 SSE 7 9 4 5 1015.5 1014.8 0.0
14/05:30am 16.7 15.2 9.1 61 4.0 SSE 7 9 4 5 1015.1 1014.4 0.0
14/05:00am 16.9 15.0 9.1 60 4.1 SSE 9 9 5 5 1014.8 1014.1 0.0
14/04:30am 17.5 16.2 9.2 58 4.4 SE 6 7 3 4 1014.8 1014.1 0.0
14/04:00am 17.6 16.3 9.2 58 4.4 SE 6 7 3 4 1014.7 1014.0 0.0
14/03:30am 18.0 16.8 9.4 57 4.6 SE 6 7 3 4 1014.8 1014.1 0.0
14/03:00am 18.3 17.1 9.4 56 4.7 SE 6 6 3 3 1015.0 1014.3 0.0
14/02:30am 18.7 17.5 9.5 55 4.9 ESE 6 7 3 4 1015.0 1014.3 0.0
14/02:00am 18.7 17.4 9.2 54 5.0 SE 6 9 3 5 1015.1 1014.4 0.0
14/01:30am 18.8 17.3 9.0 53 5.2 SSE 7 9 4 5 1015.2 1014.5 0.0
14/01:00am 19.2 18.6 9.1 52 5.4 SSW 2 4 1 2 1015.4 1014.7 0.0
14/12:30am 20.2 18.7 9.2 49 5.9 NE 7 7 4 4 1015.5 1014.8 0.0
14/12:00am 20.3 18.9 8.9 48 6.1 NNE 6 6 3 3 1015.7 1015.0 0.0
 
Date/Time
WST
Temp
°C
App
Temp
°C
Dew
Point
°C
Rel
Hum
%
Delta-T
°C
Wind Press
QNH
hPa
Press
MSL
hPa
Rain since
9am
mm
Dir  Spd
km/h
Gust
km/h
Spd
kts
Gust
kts
13/11:30pm 20.7 20.1 9.0 47 6.2 NNE 2 4 1 2 1015.7 1015.0 0.0
13/11:00pm 21.5 20.1 8.7 44 6.8 NNW 6 6 3 3 1015.6 1014.9 0.0
13/10:30pm 22.5 21.0 9.0 42 7.3 NNW 7 9 4 5 1015.6 1014.9 0.0
13/10:00pm 22.4 20.6 8.1 40 7.6 NNW 7 9 4 5 1015.4 1014.7 0.0
13/09:30pm 22.6 20.0 7.6 38 7.9 NNW 11 15 6 8 1015.4 1014.7 0.0
13/09:00pm 22.3 19.3 7.7 39 7.7 NNW 13 15 7 8 1015.3 1014.6 0.0
13/08:30pm 22.5 19.4 7.1 37 8.0 NW 13 13 7 7 1015.1 1014.4 0.0
13/08:00pm 23.5 21.1 7.2 35 8.6 NNW 9 11 5 6 1015.0 1014.3 0.0
13/07:30pm 24.4 21.3 7.1 33 9.1 NNW 13 15 7 8 1014.7 1014.0 0.0
13/07:00pm 25.3 22.2 7.4 32 9.5 NNW 13 17 7 9 1014.3 1013.6 0.0
13/06:30pm 27.0 24.3 7.5 29 10.5 NNW 11 15 6 8 1013.9 1013.2 0.0
13/06:00pm 28.4 26.0 7.1 26 11.5 NNW 9 13 5 7 1013.8 1013.1 0.0
13/05:30pm 29.7 26.9 7.0 24 12.3 NNW 11 19 6 10 1013.7 1013.0 0.0
13/05:00pm 29.7 27.3 7.0 24 12.3 N 9 15 5 8 1013.7 1013.0 0.0
13/04:30pm 29.9 27.2 7.2 24 12.4 NW 11 19 6 10 1013.9 1013.2 0.0
13/04:00pm 30.1 26.4 7.9 25 12.2 NW 17 22 9 12 1013.9 1013.2 0.0
13/03:30pm 30.2 26.6 6.8 23 12.7 NW 15 32 8 17 1013.8 1013.1 0.0
13/03:00pm 30.3 26.7 6.9 23 12.7 NW 15 28 8 15 1013.9 1013.2 0.0
13/02:30pm 30.8 27.2 6.6 22 13.1 N 15 26 8 14 1014.1 1013.4 0.0
13/02:00pm 29.8 27.1 5.8 22 12.8 NW 9 19 5 10 1014.4 1013.7 0.0
13/01:30pm 30.2 26.3 5.5 21 13.1 N 15 24 8 13 1014.7 1014.0 0.0
13/01:00pm 29.4 26.4 4.1 20 13.0 NE 9 17 5 9 1015.2 1014.5 0.0
13/12:30pm 29.2 25.5 4.6 21 12.8 NNE 13 24 7 13 1015.7 1015.0 0.0
13/12:00pm 29.1 25.7 3.9 20 12.9 NNE 11 19 6 10 1016.2 1015.5 0.0
13/11:30am 28.4 24.0 2.6 19 12.9 ENE 15 24 8 13 1016.6 1015.9 0.0
13/11:00am 27.2 22.3 2.3 20 12.3 NE 17 28 9 15 1017.3 1016.5 0.0
13/10:30am 26.5 22.0 2.4 21 11.8 ENE 15 22 8 12 1017.6 1016.9 0.0
13/10:00am 25.6 20.7 2.3 22 11.3 E 17 24 9 13 1017.7 1017.0 0.0
13/09:30am 24.7 19.8 2.2 23 10.9 E 17 22 9 12 1018.1 1017.4 0.0
13/09:00am 23.7 19.6 2.0 24 10.4 E 13 24 7 13 1017.9 1017.2 0.0
13/08:30am 22.5 17.5 1.5 25 9.8 E 17 22 9 12 1017.6 1016.9 0.0

Other formats

Comma delimited format used in spreadsheet applications
http://www.bom.gov.au/fwo/IDW60801/IDW60801.99366.axf

JavaScript Object Notation format (JSON) in row-major order
http://www.bom.gov.au/fwo/IDW60801/IDW60801.99366.json

Data quality

Most of these data are generated automatically and are frequently updated. Quality checks on data are not normally performed. It is possible for incorrect values to appear. Refer to information at About Latest Weather Observations and please check the disclaimer before using these data.